sensor_id;sensor_type;location;lat;lon;timestamp;pressure;altitude;pressure_sealevel;temperature;humidity
73817;BME280;62146;53.232;-1.304;2022-12-07T00:01:46;101423.59;;;2.93;100.00
73817;BME280;62146;53.232;-1.304;2022-12-07T00:04:15;101422.28;;;2.89;100.00
73817;BME280;62146;53.232;-1.304;2022-12-07T00:06:44;101416.41;;;2.87;100.00
73817;BME280;62146;53.232;-1.304;2022-12-07T00:09:14;101415.75;;;2.85;100.00
73817;BME280;62146;53.232;-1.304;2022-12-07T00:11:41;101421.00;;;2.85;100.00
73817;BME280;62146;53.232;-1.304;2022-12-07T00:14:11;101423.78;;;2.84;100.00
73817;BME280;62146;53.232;-1.304;2022-12-07T00:16:38;101413.31;;;2.84;100.00
73817;BME280;62146;53.232;-1.304;2022-12-07T00:19:05;101417.56;;;2.85;100.00
73817;BME280;62146;53.232;-1.304;2022-12-07T00:21:34;101412.31;;;2.85;100.00
73817;BME280;62146;53.232;-1.304;2022-12-07T00:24:02;101411.50;;;2.84;100.00
73817;BME280;62146;53.232;-1.304;2022-12-07T00:26:34;101415.13;;;2.83;100.00
73817;BME280;62146;53.232;-1.304;2022-12-07T00:29:04;101415.75;;;2.85;100.00
73817;BME280;62146;53.232;-1.304;2022-12-07T00:31:33;101412.50;;;2.83;100.00
73817;BME280;62146;53.232;-1.304;2022-12-07T00:34:01;101418.38;;;2.85;100.00
73817;BME280;62146;53.232;-1.304;2022-12-07T00:36:28;101419.38;;;2.84;100.00
73817;BME280;62146;53.232;-1.304;2022-12-07T00:38:54;101426.72;;;2.81;100.00
73817;BME280;62146;53.232;-1.304;2022-12-07T00:41:23;101421.50;;;2.81;100.00
73817;BME280;62146;53.232;-1.304;2022-12-07T00:43:51;101426.09;;;2.79;100.00
73817;BME280;62146;53.232;-1.304;2022-12-07T00:46:19;101420.03;;;2.78;100.00
73817;BME280;62146;53.232;-1.304;2022-12-07T00:48:47;101416.56;;;2.78;100.00
73817;BME280;62146;53.232;-1.304;2022-12-07T00:51:15;101412.81;;;2.80;100.00
73817;BME280;62146;53.232;-1.304;2022-12-07T00:53:42;101407.59;;;2.80;100.00
73817;BME280;62146;53.232;-1.304;2022-12-07T00:56:12;101410.38;;;2.79;100.00
73817;BME280;62146;53.232;-1.304;2022-12-07T00:58:39;101404.97;;;2.80;100.00
73817;BME280;62146;53.232;-1.304;2022-12-07T01:01:07;101398.44;;;2.76;100.00
73817;BME280;62146;53.232;-1.304;2022-12-07T01:03:34;101395.00;;;2.76;100.00
73817;BME280;62146;53.232;-1.304;2022-12-07T01:06:03;101397.94;;;2.73;100.00
73817;BME280;62146;53.232;-1.304;2022-12-07T01:08:30;101396.50;;;2.70;100.00
73817;BME280;62146;53.232;-1.304;2022-12-07T01:11:02;101395.81;;;2.68;100.00
73817;BME280;62146;53.232;-1.304;2022-12-07T01:13:30;101398.75;;;2.66;100.00
73817;BME280;62146;53.232;-1.304;2022-12-07T01:15:59;101403.50;;;2.62;100.00
73817;BME280;62146;53.232;-1.304;2022-12-07T01:18:27;101386.66;;;2.57;100.00
73817;BME280;62146;53.232;-1.304;2022-12-07T01:21:21;101388.97;;;2.52;100.00
73817;BME280;62146;53.232;-1.304;2022-12-07T01:23:48;101397.28;;;2.47;100.00
73817;BME280;62146;53.232;-1.304;2022-12-07T01:26:17;101382.09;;;2.43;100.00
73817;BME280;62146;53.232;-1.304;2022-12-07T01:28:45;101386.00;;;2.39;100.00
73817;BME280;62146;53.232;-1.304;2022-12-07T01:31:18;101375.91;;;2.36;100.00
73817;BME280;62146;53.232;-1.304;2022-12-07T01:33:47;101373.09;;;2.30;100.00
73817;BME280;62146;53.232;-1.304;2022-12-07T01:38:49;101378.16;;;2.23;100.00
73817;BME280;62146;53.232;-1.304;2022-12-07T01:41:18;101393.22;;;2.21;100.00
73817;BME280;62146;53.232;-1.304;2022-12-07T01:44:18;101390.75;;;2.20;100.00
73817;BME280;62146;53.232;-1.304;2022-12-07T01:46:46;101373.59;;;2.17;100.00
73817;BME280;62146;53.232;-1.304;2022-12-07T01:49:26;101377.53;;;2.13;100.00
73817;BME280;62146;53.232;-1.304;2022-12-07T01:52:01;101374.22;;;2.12;100.00
73817;BME280;62146;53.232;-1.304;2022-12-07T01:54:29;101370.13;;;2.09;100.00
73817;BME280;62146;53.232;-1.304;2022-12-07T01:56:56;101370.63;;;2.05;100.00
73817;BME280;62146;53.232;-1.304;2022-12-07T01:59:24;101371.13;;;2.00;100.00
73817;BME280;62146;53.232;-1.304;2022-12-07T02:01:54;101371.28;;;1.99;100.00
73817;BME280;62146;53.232;-1.304;2022-12-07T02:04:22;101363.75;;;1.96;100.00
73817;BME280;62146;53.232;-1.304;2022-12-07T02:06:49;101368.50;;;1.92;100.00
73817;BME280;62146;53.232;-1.304;2022-12-07T02:09:16;101367.19;;;1.88;100.00
73817;BME280;62146;53.232;-1.304;2022-12-07T02:11:43;101362.94;;;1.87;100.00
73817;BME280;62146;53.232;-1.304;2022-12-07T02:14:10;101365.69;;;1.86;100.00
73817;BME280;62146;53.232;-1.304;2022-12-07T02:19:36;101367.81;;;1.83;100.00
73817;BME280;62146;53.232;-1.304;2022-12-07T02:31:20;101351.78;;;1.70;100.00
73817;BME280;62146;53.232;-1.304;2022-12-07T02:36:52;101349.47;;;1.67;100.00
73817;BME280;62146;53.232;-1.304;2022-12-07T02:39:47;101345.41;;;1.64;100.00
73817;BME280;62146;53.232;-1.304;2022-12-07T02:42:16;101340.00;;;1.66;100.00
73817;BME280;62146;53.232;-1.304;2022-12-07T02:44:46;101341.63;;;1.67;100.00
73817;BME280;62146;53.232;-1.304;2022-12-07T02:47:15;101334.28;;;1.62;100.00
73817;BME280;62146;53.232;-1.304;2022-12-07T02:49:43;101341.00;;;1.65;100.00
73817;BME280;62146;53.232;-1.304;2022-12-07T02:52:10;101342.00;;;1.64;100.00
73817;BME280;62146;53.232;-1.304;2022-12-07T02:54:36;101333.47;;;1.62;100.00
73817;BME280;62146;53.232;-1.304;2022-12-07T02:57:34;101333.47;;;1.62;100.00
73817;BME280;62146;53.232;-1.304;2022-12-07T03:00:13;101341.63;;;1.59;100.00
73817;BME280;62146;53.232;-1.304;2022-12-07T03:02:54;101337.56;;;1.57;100.00
73817;BME280;62146;53.232;-1.304;2022-12-07T03:06:03;101337.69;;;1.55;100.00
73817;BME280;62146;53.232;-1.304;2022-12-07T03:11:45;101338.66;;;1.46;100.00
73817;BME280;62146;53.232;-1.304;2022-12-07T03:14:18;101336.34;;;1.43;100.00
73817;BME280;62146;53.232;-1.304;2022-12-07T03:16:55;101322.66;;;1.41;100.00
73817;BME280;62146;53.232;-1.304;2022-12-07T03:19:26;101333.56;;;1.37;100.00
73817;BME280;62146;53.232;-1.304;2022-12-07T03:21:57;101332.22;;;1.33;100.00
73817;BME280;62146;53.232;-1.304;2022-12-07T03:24:37;101329.16;;;1.30;100.00
73817;BME280;62146;53.232;-1.304;2022-12-07T03:27:09;101325.69;;;1.29;100.00
73817;BME280;62146;53.232;-1.304;2022-12-07T03:29:44;101330.75;;;1.23;100.00
73817;BME280;62146;53.232;-1.304;2022-12-07T03:35:11;101333.16;;;1.16;100.00
73817;BME280;62146;53.232;-1.304;2022-12-07T03:37:54;101329.75;;;1.16;100.00
73817;BME280;62146;53.232;-1.304;2022-12-07T03:40:37;101322.38;;;1.11;100.00
73817;BME280;62146;53.232;-1.304;2022-12-07T03:43:06;101328.91;;;1.07;100.00
73817;BME280;62146;53.232;-1.304;2022-12-07T03:45:45;101327.41;;;1.05;100.00
73817;BME280;62146;53.232;-1.304;2022-12-07T03:51:08;101319.22;;;1.00;100.00
73817;BME280;62146;53.232;-1.304;2022-12-07T03:53:46;101325.28;;;1.01;100.00
73817;BME280;62146;53.232;-1.304;2022-12-07T03:56:16;101322.81;;;0.99;100.00
73817;BME280;62146;53.232;-1.304;2022-12-07T03:58:43;101316.13;;;0.97;100.00
73817;BME280;62146;53.232;-1.304;2022-12-07T04:01:10;101311.88;;;0.96;100.00
73817;BME280;62146;53.232;-1.304;2022-12-07T04:03:36;101313.81;;;0.94;100.00
73817;BME280;62146;53.232;-1.304;2022-12-07T04:06:03;101311.38;;;0.92;100.00
73817;BME280;62146;53.232;-1.304;2022-12-07T04:08:30;101309.06;;;0.89;100.00
73817;BME280;62146;53.232;-1.304;2022-12-07T04:10:56;101318.19;;;0.85;100.00
73817;BME280;62146;53.232;-1.304;2022-12-07T04:13:23;101306.09;;;0.84;100.00
73817;BME280;62146;53.232;-1.304;2022-12-07T04:15:49;101307.41;;;0.80;100.00
73817;BME280;62146;53.232;-1.304;2022-12-07T04:18:16;101304.09;;;0.79;100.00
73817;BME280;62146;53.232;-1.304;2022-12-07T04:20:43;101307.84;;;0.76;100.00
73817;BME280;62146;53.232;-1.304;2022-12-07T04:23:09;101304.59;;;0.74;100.00
73817;BME280;62146;53.232;-1.304;2022-12-07T04:25:36;101305.06;;;0.70;100.00
73817;BME280;62146;53.232;-1.304;2022-12-07T04:28:02;101310.56;;;0.67;100.00
73817;BME280;62146;53.232;-1.304;2022-12-07T04:30:29;101310.88;;;0.64;100.00
73817;BME280;62146;53.232;-1.304;2022-12-07T04:32:55;101310.34;;;0.60;100.00
73817;BME280;62146;53.232;-1.304;2022-12-07T04:35:22;101306.13;;;0.59;100.00
73817;BME280;62146;53.232;-1.304;2022-12-07T04:37:48;101310.81;;;0.56;100.00
73817;BME280;62146;53.232;-1.304;2022-12-07T04:40:15;101304.16;;;0.53;100.00
73817;BME280;62146;53.232;-1.304;2022-12-07T04:42:42;101301.16;;;0.49;100.00
73817;BME280;62146;53.232;-1.304;2022-12-07T04:45:08;101301.16;;;0.49;100.00
73817;BME280;62146;53.232;-1.304;2022-12-07T04:47:35;101298.22;;;0.44;100.00
73817;BME280;62146;53.232;-1.304;2022-12-07T04:50:02;101294.78;;;0.43;100.00
73817;BME280;62146;53.232;-1.304;2022-12-07T04:52:29;101293.47;;;0.39;100.00
73817;BME280;62146;53.232;-1.304;2022-12-07T04:54:56;101288.53;;;0.36;100.00
73817;BME280;62146;53.232;-1.304;2022-12-07T04:57:22;101292.25;;;0.34;100.00
73817;BME280;62146;53.232;-1.304;2022-12-07T04:59:49;101296.97;;;0.30;100.00
73817;BME280;62146;53.232;-1.304;2022-12-07T05:02:15;101286.84;;;0.27;100.00
73817;BME280;62146;53.232;-1.304;2022-12-07T05:04:42;101294.81;;;0.26;100.00
73817;BME280;62146;53.232;-1.304;2022-12-07T05:07:09;101290.88;;;0.22;100.00
73817;BME280;62146;53.232;-1.304;2022-12-07T05:09:35;101295.16;;;0.23;100.00
73817;BME280;62146;53.232;-1.304;2022-12-07T05:12:02;101291.56;;;0.24;100.00
73817;BME280;62146;53.232;-1.304;2022-12-07T05:14:28;101294.16;;;0.24;100.00
73817;BME280;62146;53.232;-1.304;2022-12-07T05:16:55;101291.84;;;0.21;100.00
73817;BME280;62146;53.232;-1.304;2022-12-07T05:19:21;101298.06;;;0.20;100.00
73817;BME280;62146;53.232;-1.304;2022-12-07T05:21:48;101296.41;;;0.19;100.00
73817;BME280;62146;53.232;-1.304;2022-12-07T05:24:15;101293.13;;;0.17;100.00
73817;BME280;62146;53.232;-1.304;2022-12-07T05:26:43;101296.03;;;0.14;100.00
73817;BME280;62146;53.232;-1.304;2022-12-07T05:29:15;101286.22;;;0.08;100.00
73817;BME280;62146;53.232;-1.304;2022-12-07T05:31:42;101291.13;;;0.11;100.00
73817;BME280;62146;53.232;-1.304;2022-12-07T05:34:09;101293.06;;;0.09;100.00
73817;BME280;62146;53.232;-1.304;2022-12-07T05:36:37;101290.75;;;0.06;100.00
73817;BME280;62146;53.232;-1.304;2022-12-07T05:39:03;101288.44;;;0.03;100.00
73817;BME280;62146;53.232;-1.304;2022-12-07T05:41:30;101293.84;;;0.02;100.00
73817;BME280;62146;53.232;-1.304;2022-12-07T05:44:15;101294.81;;;0.01;100.00
73817;BME280;62146;53.232;-1.304;2022-12-07T05:46:41;101299.22;;;0.00;100.00
73817;BME280;62146;53.232;-1.304;2022-12-07T05:49:08;101296.72;;;-0.01;100.00
73817;BME280;62146;53.232;-1.304;2022-12-07T05:51:35;101297.72;;;-0.02;100.00
73817;BME280;62146;53.232;-1.304;2022-12-07T05:54:01;101299.03;;;0.02;100.00
73817;BME280;62146;53.232;-1.304;2022-12-07T05:56:28;101291.06;;;0.03;100.00
73817;BME280;62146;53.232;-1.304;2022-12-07T05:58:54;101304.94;;;0.04;100.00
73817;BME280;62146;53.232;-1.304;2022-12-07T06:01:39;101294.50;;;0.04;100.00
73817;BME280;62146;53.232;-1.304;2022-12-07T06:04:07;101291.75;;;0.05;100.00
73817;BME280;62146;53.232;-1.304;2022-12-07T06:06:33;101288.97;;;0.07;100.00
73817;BME280;62146;53.232;-1.304;2022-12-07T06:09:00;101283.75;;;0.07;100.00
73817;BME280;62146;53.232;-1.304;2022-12-07T06:11:27;101283.47;;;0.10;100.00
73817;BME280;62146;53.232;-1.304;2022-12-07T06:14:12;101281.97;;;0.07;100.00
73817;BME280;62146;53.232;-1.304;2022-12-07T06:16:39;101280.50;;;0.05;100.00
73817;BME280;62146;53.232;-1.304;2022-12-07T06:19:05;101280.34;;;0.06;100.00
73817;BME280;62146;53.232;-1.304;2022-12-07T06:21:32;101275.13;;;0.06;100.00
73817;BME280;62146;53.232;-1.304;2022-12-07T06:23:59;101279.69;;;0.04;100.00
73817;BME280;62146;53.232;-1.304;2022-12-07T06:26:25;101276.09;;;0.05;100.00
73817;BME280;62146;53.232;-1.304;2022-12-07T06:28:52;101284.09;;;0.04;100.00
73817;BME280;62146;53.232;-1.304;2022-12-07T06:31:18;101277.53;;;0.00;100.00
73817;BME280;62146;53.232;-1.304;2022-12-07T06:33:45;101279.97;;;0.01;100.00
73817;BME280;62146;53.232;-1.304;2022-12-07T06:36:12;101269.72;;;0.00;100.00
73817;BME280;62146;53.232;-1.304;2022-12-07T06:38:38;101269.22;;;-0.03;100.00
73817;BME280;62146;53.232;-1.304;2022-12-07T06:41:05;101268.34;;;-0.04;100.00
73817;BME280;62146;53.232;-1.304;2022-12-07T06:43:32;101268.53;;;-0.05;100.00
73817;BME280;62146;53.232;-1.304;2022-12-07T06:45:59;101271.13;;;-0.05;100.00
73817;BME280;62146;53.232;-1.304;2022-12-07T06:48:26;101275.81;;;-0.09;100.00
73817;BME280;62146;53.232;-1.304;2022-12-07T06:50:52;101263.94;;;-0.11;100.00
73817;BME280;62146;53.232;-1.304;2022-12-07T06:53:21;101264.34;;;-0.16;100.00
73817;BME280;62146;53.232;-1.304;2022-12-07T06:55:48;101265.34;;;-0.17;100.00
73817;BME280;62146;53.232;-1.304;2022-12-07T06:58:15;101264.81;;;-0.20;100.00
73817;BME280;62146;53.232;-1.304;2022-12-07T07:00:43;101266.59;;;-0.21;100.00
73817;BME280;62146;53.232;-1.304;2022-12-07T07:03:10;101265.78;;;-0.21;100.00
73817;BME280;62146;53.232;-1.304;2022-12-07T07:05:36;101276.66;;;-0.26;100.00
73817;BME280;62146;53.232;-1.304;2022-12-07T07:08:03;101259.53;;;-0.28;100.00
73817;BME280;62146;53.232;-1.304;2022-12-07T07:10:48;101264.75;;;-0.28;100.00
73817;BME280;62146;53.232;-1.304;2022-12-07T07:13:14;101255.59;;;-0.32;100.00
73817;BME280;62146;53.232;-1.304;2022-12-07T07:15:41;101265.03;;;-0.31;100.00
73817;BME280;62146;53.232;-1.304;2022-12-07T07:18:07;101256.41;;;-0.31;100.00
73817;BME280;62146;53.232;-1.304;2022-12-07T07:20:34;101253.97;;;-0.33;100.00
73817;BME280;62146;53.232;-1.304;2022-12-07T07:23:01;101256.56;;;-0.33;100.00
73817;BME280;62146;53.232;-1.304;2022-12-07T07:25:28;101253.00;;;-0.32;100.00
73817;BME280;62146;53.232;-1.304;2022-12-07T07:27:54;101254.94;;;-0.34;100.00
73817;BME280;62146;53.232;-1.304;2022-12-07T07:30:21;101259.31;;;-0.34;100.00
73817;BME280;62146;53.232;-1.304;2022-12-07T07:32:47;101260.97;;;-0.33;100.00
73817;BME280;62146;53.232;-1.304;2022-12-07T07:35:14;101261.09;;;-0.35;100.00
73817;BME280;62146;53.232;-1.304;2022-12-07T07:37:41;101264.53;;;-0.34;100.00
73817;BME280;62146;53.232;-1.304;2022-12-07T07:40:09;101258.81;;;-0.38;100.00
73817;BME280;62146;53.232;-1.304;2022-12-07T07:42:35;101263.34;;;-0.40;100.00
73817;BME280;62146;53.232;-1.304;2022-12-07T07:45:02;101261.72;;;-0.41;100.00
73817;BME280;62146;53.232;-1.304;2022-12-07T07:47:29;101257.31;;;-0.40;100.00
73817;BME280;62146;53.232;-1.304;2022-12-07T07:49:55;101261.72;;;-0.41;100.00
73817;BME280;62146;53.232;-1.304;2022-12-07T07:52:23;101251.28;;;-0.41;100.00
73817;BME280;62146;53.232;-1.304;2022-12-07T07:54:49;101249.66;;;-0.42;100.00
73817;BME280;62146;53.232;-1.304;2022-12-07T07:57:16;101261.03;;;-0.43;100.00
73817;BME280;62146;53.232;-1.304;2022-12-07T07:59:43;101253.09;;;-0.41;100.00
73817;BME280;62146;53.232;-1.304;2022-12-07T08:02:18;101257.47;;;-0.42;100.00
73817;BME280;62146;53.232;-1.304;2022-12-07T08:04:45;101257.47;;;-0.42;100.00
73817;BME280;62146;53.232;-1.304;2022-12-07T08:07:13;101251.59;;;-0.44;100.00
73817;BME280;62146;53.232;-1.304;2022-12-07T08:09:40;101251.59;;;-0.44;100.00
73817;BME280;62146;53.232;-1.304;2022-12-07T08:12:07;101247.47;;;-0.46;100.00
73817;BME280;62146;53.232;-1.304;2022-12-07T08:14:34;101247.47;;;-0.46;100.00
73817;BME280;62146;53.232;-1.304;2022-12-07T08:17:00;101250.78;;;-0.44;100.00
73817;BME280;62146;53.232;-1.304;2022-12-07T08:19:27;101246.66;;;-0.47;100.00
73817;BME280;62146;53.232;-1.304;2022-12-07T08:21:53;101248.34;;;-0.46;100.00
73817;BME280;62146;53.232;-1.304;2022-12-07T08:24:22;101244.75;;;-0.45;100.00
73817;BME280;62146;53.232;-1.304;2022-12-07T08:26:49;101242.16;;;-0.45;100.00
73817;BME280;62146;53.232;-1.304;2022-12-07T08:29:16;101236.25;;;-0.47;100.00
73817;BME280;62146;53.232;-1.304;2022-12-07T08:31:43;101249.97;;;-0.45;100.00
73817;BME280;62146;53.232;-1.304;2022-12-07T08:34:10;101254.34;;;-0.45;100.00
73817;BME280;62146;53.232;-1.304;2022-12-07T08:36:37;101256.16;;;-0.46;100.00
73817;BME280;62146;53.232;-1.304;2022-12-07T08:39:04;101262.00;;;-0.44;100.00
73817;BME280;62146;53.232;-1.304;2022-12-07T08:41:50;101260.09;;;-0.42;100.00
73817;BME280;62146;53.232;-1.304;2022-12-07T08:44:17;101260.75;;;-0.40;100.00
73817;BME280;62146;53.232;-1.304;2022-12-07T08:46:50;101255.53;;;-0.40;100.00
73817;BME280;62146;53.232;-1.304;2022-12-07T08:49:24;101251.00;;;-0.38;100.00
73817;BME280;62146;53.232;-1.304;2022-12-07T08:51:52;101252.13;;;-0.40;100.00
73817;BME280;62146;53.232;-1.304;2022-12-07T08:54:19;101249.06;;;-0.36;100.00
73817;BME280;62146;53.232;-1.304;2022-12-07T08:56:47;101246.44;;;-0.36;100.00
73817;BME280;62146;53.232;-1.304;2022-12-07T08:59:20;101252.19;;;-0.32;100.00
73817;BME280;62146;53.232;-1.304;2022-12-07T09:01:47;101253.00;;;-0.32;100.00
73817;BME280;62146;53.232;-1.304;2022-12-07T09:04:14;101253.00;;;-0.32;100.00
73817;BME280;62146;53.232;-1.304;2022-12-07T09:06:42;101255.47;;;-0.30;100.00
73817;BME280;62146;53.232;-1.304;2022-12-07T09:09:09;101248.47;;;-0.30;100.00
73817;BME280;62146;53.232;-1.304;2022-12-07T09:11:37;101260.50;;;-0.29;100.00
73817;BME280;62146;53.232;-1.304;2022-12-07T09:14:05;101259.41;;;-0.27;100.00
73817;BME280;62146;53.232;-1.304;2022-12-07T09:16:32;101254.69;;;-0.23;100.00
73817;BME280;62146;53.232;-1.304;2022-12-07T09:18:58;101250.97;;;-0.21;100.00
73817;BME280;62146;53.232;-1.304;2022-12-07T09:21:25;101245.19;;;-0.15;100.00
73817;BME280;62146;53.232;-1.304;2022-12-07T09:23:51;101242.25;;;-0.12;100.00
73817;BME280;62146;53.232;-1.304;2022-12-07T09:26:18;101243.56;;;-0.08;100.00
73817;BME280;62146;53.232;-1.304;2022-12-07T09:28:44;101238.88;;;-0.04;100.00
73817;BME280;62146;53.232;-1.304;2022-12-07T09:31:12;101240.22;;;-0.01;100.00
73817;BME280;62146;53.232;-1.304;2022-12-07T09:33:54;101238.00;;;0.04;100.00
73817;BME280;62146;53.232;-1.304;2022-12-07T09:36:21;101239.31;;;0.08;100.00
73817;BME280;62146;53.232;-1.304;2022-12-07T09:38:47;101240.66;;;0.12;100.00
73817;BME280;62146;53.232;-1.304;2022-12-07T09:41:14;101237.72;;;0.15;100.00
73817;BME280;62146;53.232;-1.304;2022-12-07T09:43:42;101228.78;;;0.18;100.00
73817;BME280;62146;53.232;-1.304;2022-12-07T09:46:13;101226.84;;;0.20;100.00
73817;BME280;62146;53.232;-1.304;2022-12-07T09:48:42;101226.50;;;0.23;100.00
73817;BME280;62146;53.232;-1.304;2022-12-07T09:51:29;101221.97;;;0.25;100.00
73817;BME280;62146;53.232;-1.304;2022-12-07T09:53:58;101216.94;;;0.23;100.00
73817;BME280;62146;53.232;-1.304;2022-12-07T09:56:25;101226.56;;;0.30;100.00
73817;BME280;62146;53.232;-1.304;2022-12-07T09:58:58;101221.22;;;0.32;100.00
73817;BME280;62146;53.232;-1.304;2022-12-07T10:01:29;101236.09;;;0.39;100.00
73817;BME280;62146;53.232;-1.304;2022-12-07T10:04:15;101228.78;;;0.43;100.00
73817;BME280;62146;53.232;-1.304;2022-12-07T10:06:43;101232.69;;;0.47;100.00
73817;BME280;62146;53.232;-1.304;2022-12-07T10:09:15;101229.78;;;0.50;100.00
73817;BME280;62146;53.232;-1.304;2022-12-07T10:12:07;101228.50;;;0.53;100.00
73817;BME280;62146;53.232;-1.304;2022-12-07T10:14:38;101222.31;;;0.54;100.00
73817;BME280;62146;53.232;-1.304;2022-12-07T10:17:29;101230.81;;;0.64;100.00
73817;BME280;62146;53.232;-1.304;2022-12-07T10:22:56;101229.56;;;0.76;100.00
73817;BME280;62146;53.232;-1.304;2022-12-07T10:25:27;101219.47;;;0.81;100.00
73817;BME280;62146;53.232;-1.304;2022-12-07T10:30:30;101209.72;;;0.91;100.00
73817;BME280;62146;53.232;-1.304;2022-12-07T10:32:57;101207.47;;;0.96;100.00
73817;BME280;62146;53.232;-1.304;2022-12-07T10:35:29;101205.19;;;1.01;100.00
73817;BME280;62146;53.232;-1.304;2022-12-07T10:37:58;101208.13;;;1.06;100.00
73817;BME280;62146;53.232;-1.304;2022-12-07T10:40:32;101205.19;;;1.08;100.00
73817;BME280;62146;53.232;-1.304;2022-12-07T10:46:14;101199.69;;;1.19;100.00
73817;BME280;62146;53.232;-1.304;2022-12-07T10:51:49;101185.50;;;1.30;100.00
73817;BME280;62146;53.232;-1.304;2022-12-07T10:57:15;101173.56;;;1.43;100.00
73817;BME280;62146;53.232;-1.304;2022-12-07T11:02:30;101171.94;;;1.58;100.00
73817;BME280;62146;53.232;-1.304;2022-12-07T11:10:38;101173.22;;;1.85;100.00
73817;BME280;62146;53.232;-1.304;2022-12-07T11:13:19;101165.38;;;1.93;100.00
73817;BME280;62146;53.232;-1.304;2022-12-07T11:16:20;101162.59;;;2.02;100.00
73817;BME280;62146;53.232;-1.304;2022-12-07T11:24:15;101158.72;;;2.28;100.00
73817;BME280;62146;53.232;-1.304;2022-12-07T11:38:18;101132.53;;;2.74;100.00
73817;BME280;62146;53.232;-1.304;2022-12-07T11:40:57;101125.09;;;2.85;100.00
73817;BME280;62146;53.232;-1.304;2022-12-07T11:46:59;101122.69;;;3.06;100.00
73817;BME280;62146;53.232;-1.304;2022-12-07T11:52:06;101117.53;;;3.34;100.00
73817;BME280;62146;53.232;-1.304;2022-12-07T11:54:41;101119.41;;;3.48;100.00
73817;BME280;62146;53.232;-1.304;2022-12-07T11:57:17;101109.75;;;3.63;100.00
73817;BME280;62146;53.232;-1.304;2022-12-07T11:59:50;101095.50;;;3.79;100.00
73817;BME280;62146;53.232;-1.304;2022-12-07T12:02:26;101102.38;;;3.95;100.00
73817;BME280;62146;53.232;-1.304;2022-12-07T12:04:59;101082.41;;;4.08;100.00
73817;BME280;62146;53.232;-1.304;2022-12-07T12:07:28;101084.81;;;4.24;100.00
73817;BME280;62146;53.232;-1.304;2022-12-07T12:10:19;101082.81;;;4.40;100.00
73817;BME280;62146;53.232;-1.304;2022-12-07T12:18:48;101061.44;;;4.78;100.00
73817;BME280;62146;53.232;-1.304;2022-12-07T12:21:12;101050.59;;;4.87;100.00
73817;BME280;62146;53.232;-1.304;2022-12-07T12:23:54;101047.31;;;4.99;100.00
73817;BME280;62146;53.232;-1.304;2022-12-07T12:26:24;101048.44;;;5.11;100.00
73817;BME280;62146;53.232;-1.304;2022-12-07T12:29:01;101051.53;;;5.21;100.00
73817;BME280;62146;53.232;-1.304;2022-12-07T12:31:33;101037.28;;;5.30;100.00
73817;BME280;62146;53.232;-1.304;2022-12-07T12:34:10;101042.38;;;5.37;100.00
73817;BME280;62146;53.232;-1.304;2022-12-07T12:36:50;101034.97;;;5.47;100.00
73817;BME280;62146;53.232;-1.304;2022-12-07T12:39:18;101033.00;;;5.56;100.00
73817;BME280;62146;53.232;-1.304;2022-12-07T12:51:44;101019.13;;;5.95;100.00
73817;BME280;62146;53.232;-1.304;2022-12-07T12:57:12;101004.00;;;6.10;100.00
73817;BME280;62146;53.232;-1.304;2022-12-07T12:59:39;101000.41;;;6.17;100.00
73817;BME280;62146;53.232;-1.304;2022-12-07T13:02:36;100999.59;;;6.23;100.00
73817;BME280;62146;53.232;-1.304;2022-12-07T13:15:50;100984.69;;;6.49;100.00
73817;BME280;62146;53.232;-1.304;2022-12-07T13:26:19;100987.75;;;6.65;100.00
73817;BME280;62146;53.232;-1.304;2022-12-07T13:28:52;100979.25;;;6.63;100.00
73817;BME280;62146;53.232;-1.304;2022-12-07T13:33:57;100965.44;;;6.61;100.00
73817;BME280;62146;53.232;-1.304;2022-12-07T13:36:25;100956.13;;;6.59;100.00
73817;BME280;62146;53.232;-1.304;2022-12-07T13:38:57;100946.41;;;6.59;100.00
73817;BME280;62146;53.232;-1.304;2022-12-07T13:41:29;100950.03;;;6.58;100.00
73817;BME280;62146;53.232;-1.304;2022-12-07T13:49:27;100943.16;;;6.44;100.00
73817;BME280;62146;53.232;-1.304;2022-12-07T13:51:56;100949.81;;;6.41;100.00
73817;BME280;62146;53.232;-1.304;2022-12-07T13:54:33;100946.94;;;6.36;100.00
73817;BME280;62146;53.232;-1.304;2022-12-07T13:57:00;100942.28;;;6.31;100.00
73817;BME280;62146;53.232;-1.304;2022-12-07T13:59:26;100947.97;;;6.28;100.00
73817;BME280;62146;53.232;-1.304;2022-12-07T14:01:53;100942.47;;;6.23;100.00
73817;BME280;62146;53.232;-1.304;2022-12-07T14:04:32;100936.19;;;6.18;100.00
73817;BME280;62146;53.232;-1.304;2022-12-07T14:07:01;100944.47;;;6.15;100.00
73817;BME280;62146;53.232;-1.304;2022-12-07T14:09:53;100934.94;;;6.08;100.00
73817;BME280;62146;53.232;-1.304;2022-12-07T14:12:20;100942.41;;;6.04;100.00
73817;BME280;62146;53.232;-1.304;2022-12-07T14:14:48;100943.00;;;6.00;100.00
73817;BME280;62146;53.232;-1.304;2022-12-07T14:17:17;100942.00;;;5.94;100.00
73817;BME280;62146;53.232;-1.304;2022-12-07T14:20:28;100932.44;;;5.87;100.00
73817;BME280;62146;53.232;-1.304;2022-12-07T14:22:55;100931.38;;;5.82;100.00
73817;BME280;62146;53.232;-1.304;2022-12-07T14:25:26;100921.66;;;5.76;100.00
73817;BME280;62146;53.232;-1.304;2022-12-07T14:30:24;100903.56;;;5.66;100.00
73817;BME280;62146;53.232;-1.304;2022-12-07T14:32:55;100892.19;;;5.59;100.00
73817;BME280;62146;53.232;-1.304;2022-12-07T14:35:23;100892.19;;;5.53;100.00
73817;BME280;62146;53.232;-1.304;2022-12-07T14:37:50;100903.28;;;5.49;100.00
73817;BME280;62146;53.232;-1.304;2022-12-07T14:40:23;100894.56;;;5.42;100.00
73817;BME280;62146;53.232;-1.304;2022-12-07T14:43:00;100895.13;;;5.37;100.00
73817;BME280;62146;53.232;-1.304;2022-12-07T14:45:28;100893.69;;;5.35;100.00
73817;BME280;62146;53.232;-1.304;2022-12-07T14:47:55;100896.09;;;5.30;100.00
73817;BME280;62146;53.232;-1.304;2022-12-07T14:50:45;100883.56;;;5.26;100.00
73817;BME280;62146;53.232;-1.304;2022-12-07T14:53:36;100897.25;;;5.21;100.00
73817;BME280;62146;53.232;-1.304;2022-12-07T14:56:05;100898.63;;;5.17;100.00